Time;durP1;ratioP1;P1;durP2;ratioP2;P2;SDS_P1;SDS_P2;PMS_P1;PMS_P2;Temp;Humidity;BMP_temperature;BMP_pressure;BME280_temperature;BME280_humidity;BME280_pressure;Samples;Min_cycle;Max_cycle;Signal;HPM_P1;HPM_P2
2021/09/26 00:01:51;;;;;;;;;44.75;38.75;22.10;43.70;;;;;;5135746;27;8918;-71
2021/09/26 00:04:16;;;;;;;;;43.33;37.33;22.00;43.70;;;;;;5135885;27;8834;-70
2021/09/26 00:06:42;;;;;;;;;40.00;35.33;22.00;43.60;;;;;;5135611;27;8848;-68
2021/09/26 00:09:08;;;;;;;;;41.33;37.00;22.10;43.60;;;;;;5132304;27;8817;-67
2021/09/26 00:11:34;;;;;;;;;44.00;39.00;22.10;43.60;;;;;;5135591;27;8771;-70
2021/09/26 00:14:00;;;;;;;;;46.67;41.00;22.10;43.60;;;;;;5135513;27;8779;-70
2021/09/26 00:16:26;;;;;;;;;46.67;40.67;22.10;43.50;;;;;;5135592;27;8757;-70
2021/09/26 00:18:52;;;;;;;;;52.50;44.50;22.00;43.60;;;;;;5134263;27;8768;-69
2021/09/26 00:21:18;;;;;;;;;52.50;44.00;21.90;43.70;;;;;;5135437;27;8768;-71
2021/09/26 00:23:46;;;;;;;;;56.00;47.00;21.90;43.80;;;;;;5135326;27;8799;-70
2021/09/26 00:26:12;;;;;;;;;52.75;45.50;21.90;43.70;;;;;;5135442;27;8759;-70
2021/09/26 00:28:38;;;;;;;;;54.75;46.25;21.90;43.70;;;;;;5135684;27;8744;-68
2021/09/26 00:31:05;;;;;;;;;53.00;46.00;21.90;43.70;;;;;;5135635;27;8779;-70
2021/09/26 00:33:31;;;;;;;;;53.00;45.25;21.90;43.60;;;;;;5135118;27;8900;-70
2021/09/26 00:35:57;;;;;;;;;54.50;46.25;21.90;43.50;;;;;;5135359;27;8774;-69
2021/09/26 00:38:23;;;;;;;;;58.00;48.75;21.90;43.80;;;;;;5135413;27;8778;-70
2021/09/26 00:40:51;;;;;;;;;54.00;45.75;21.80;43.80;;;;;;5138046;27;8886;-71
2021/09/26 00:43:17;;;;;;;;;55.00;46.00;21.90;43.70;;;;;;5139572;27;8774;-71
2021/09/26 00:45:44;;;;;;;;;47.00;41.00;21.80;43.70;;;;;;5139491;27;8774;-70
2021/09/26 00:48:10;;;;;;;;;52.25;44.50;21.80;44.00;;;;;;5137838;27;8867;-70
2021/09/26 00:50:37;;;;;;;;;53.25;44.25;21.70;44.00;;;;;;5139515;27;8768;-69
2021/09/26 00:53:03;;;;;;;;;56.50;47.75;21.70;44.10;;;;;;5139321;27;8756;-70
2021/09/26 00:55:31;;;;;;;;;54.50;46.25;21.70;44.00;;;;;;5139426;27;8792;-69
2021/09/26 00:57:58;;;;;;;;;51.25;44.25;21.70;44.20;;;;;;5139264;27;8775;-70
2021/09/26 01:00:25;;;;;;;;;54.00;46.00;21.70;44.30;;;;;;5139119;27;8806;-70
2021/09/26 01:02:51;;;;;;;;;49.00;42.00;21.60;44.20;;;;;;5120957;27;8806;-72
2021/09/26 01:05:18;;;;;;;;;49.00;42.00;21.60;44.10;;;;;;5139386;27;8764;-72
2021/09/26 01:08:11;;;;;;;;;51.75;43.25;21.60;44.10;;;;;;5136838;27;8798;-71
2021/09/26 01:11:05;;;;;;;;;50.00;43.00;21.60;44.20;;;;;;5098111;28;8845;-74
2021/09/26 01:13:39;;;;;;;;;46.75;40.75;21.60;44.10;;;;;;5094856;28;8941;-71
2021/09/26 01:16:12;;;;;;;;;51.75;44.75;21.70;44.10;;;;;;5098059;28;8883;-66
2021/09/26 01:19:05;;;;;;;;;41.33;37.33;21.60;44.00;;;;;;5126168;27;8735;-69
2021/09/26 01:21:48;;;;;;;;;49.00;42.00;21.50;44.30;;;;;;5138808;27;8744;-67
2021/09/26 01:24:19;;;;;;;;;42.33;38.33;21.50;45.30;;;;;;5139032;27;8772;-68
2021/09/26 01:27:23;;;;;;;;;49.00;42.00;21.40;46.00;;;;;;5139060;27;8759;-69
2021/09/26 01:30:01;;;;;;;;;47.67;41.00;21.30;46.80;;;;;;5138740;27;8843;-69
2021/09/26 01:32:30;;;;;;;;;38.67;35.00;21.30;47.10;;;;;;5120478;27;8747;-69
2021/09/26 01:34:58;;;;;;;;;48.25;41.25;21.30;46.60;;;;;;5138323;27;8807;-71
2021/09/26 01:37:40;;;;;;;;;48.75;42.00;21.40;47.30;;;;;;5138515;27;8791;-69
2021/09/26 01:40:07;;;;;;;;;42.67;38.33;21.40;46.10;;;;;;5138533;27;8751;-70
2021/09/26 01:42:42;;;;;;;;;48.00;41.00;21.40;46.10;;;;;;5138419;27;8747;-70
2021/09/26 01:45:11;;;;;;;;;45.00;40.00;21.30;45.90;;;;;;5138643;27;8767;-69
2021/09/26 01:47:57;;;;;;;;;43.33;39.00;21.40;45.60;;;;;;5137029;27;8885;-69
2021/09/26 01:50:24;;;;;;;;;46.00;40.67;21.30;45.00;;;;;;5138525;27;8759;-69
2021/09/26 01:52:52;;;;;;;;;47.00;40.50;21.40;45.60;;;;;;5137767;27;9444;-70
2021/09/26 01:55:22;;;;;;;;;50.33;43.33;21.40;44.30;;;;;;5138063;27;8787;-70
2021/09/26 01:57:48;;;;;;;;;43.00;38.33;21.20;44.40;;;;;;5138202;27;8768;-69
2021/09/26 02:00:14;;;;;;;;;43.33;38.67;21.20;44.50;;;;;;5138070;27;8786;-70
2021/09/26 02:02:42;;;;;;;;;53.00;45.25;21.20;44.10;;;;;;5137917;27;8783;-70
2021/09/26 02:05:10;;;;;;;;;48.00;41.75;21.30;44.00;;;;;;5138312;27;8759;-71
2021/09/26 02:07:43;;;;;;;;;48.75;42.00;21.20;44.00;;;;;;5137908;27;8756;-71
2021/09/26 02:10:11;;;;;;;;;49.00;42.50;21.10;44.30;;;;;;5137958;27;9485;-67
2021/09/26 02:12:37;;;;;;;;;44.00;39.33;21.10;44.10;;;;;;5138052;27;8877;-68
2021/09/26 02:15:06;;;;;;;;;42.00;38.00;21.00;44.00;;;;;;5137969;27;8906;-69
2021/09/26 02:17:32;;;;;;;;;42.33;38.33;20.90;44.10;;;;;;5136183;27;8779;-68
2021/09/26 02:20:01;;;;;;;;;39.33;36.33;21.00;44.10;;;;;;5137598;27;8854;-70
2021/09/26 02:22:35;;;;;;;;;38.67;35.67;21.00;43.90;;;;;;5137667;27;8843;-69
2021/09/26 02:25:05;;;;;;;;;38.00;36.00;21.00;43.70;;;;;;5137935;27;8771;-69
2021/09/26 02:27:32;;;;;;;;;38.00;34.67;20.90;43.80;;;;;;5137572;27;8744;-70
2021/09/26 02:29:58;;;;;;;;;40.33;36.67;21.00;43.70;;;;;;5138108;27;8772;-69
2021/09/26 02:32:24;;;;;;;;;36.00;34.00;20.80;43.80;;;;;;5137509;27;9453;-69
2021/09/26 02:34:50;;;;;;;;;34.67;33.67;20.80;44.00;;;;;;5137253;27;8811;-69
2021/09/26 02:37:16;;;;;;;;;30.67;30.67;20.80;44.00;;;;;;5137422;27;8763;-70
2021/09/26 02:39:43;;;;;;;;;35.00;32.67;20.80;43.80;;;;;;5137395;27;8781;-70
2021/09/26 02:42:30;;;;;;;;;36.67;35.33;20.80;43.70;;;;;;5137371;27;8772;-68
2021/09/26 02:45:26;;;;;;;;;31.00;31.00;20.80;43.80;;;;;;5137634;27;8759;-69
2021/09/26 02:48:05;;;;;;;;;35.00;33.33;20.70;44.00;;;;;;5135757;27;8795;-70
2021/09/26 02:50:32;;;;;;;;;42.67;38.33;20.70;43.90;;;;;;5137204;27;8764;-71
2021/09/26 02:52:59;;;;;;;;;48.75;41.75;20.60;43.90;;;;;;5137173;27;8755;-72
2021/09/26 02:55:26;;;;;;;;;45.67;40.67;20.40;44.30;;;;;;5137261;27;8947;-69
2021/09/26 02:57:52;;;;;;;;;51.00;44.00;20.40;44.90;;;;;;5137271;27;9424;-69
2021/09/26 03:00:18;;;;;;;;;47.75;41.00;20.20;45.20;;;;;;5136995;27;8752;-71
2021/09/26 03:02:45;;;;;;;;;48.00;41.50;20.20;44.90;;;;;;5136374;27;8863;-71
2021/09/26 03:05:12;;;;;;;;;53.75;45.00;20.30;45.00;;;;;;5136182;27;8786;-70
2021/09/26 03:07:38;;;;;;;;;55.00;45.75;20.40;44.60;;;;;;5095541;28;8794;-70
2021/09/26 03:10:08;;;;;;;;;53.25;45.25;20.50;44.40;;;;;;5095731;28;8807;-71
2021/09/26 03:12:34;;;;;;;;;52.50;44.50;20.50;44.50;;;;;;5095704;28;9504;-71
2021/09/26 03:15:01;;;;;;;;;49.50;42.25;20.40;44.90;;;;;;5095628;28;8806;-69
2021/09/26 03:17:27;;;;;;;;;48.25;41.50;20.30;45.90;;;;;;5120937;27;8772;-69
2021/09/26 03:19:53;;;;;;;;;56.25;48.25;20.20;46.90;;;;;;5136810;27;8767;-70
2021/09/26 03:22:19;;;;;;;;;50.50;43.50;20.30;47.20;;;;;;5136752;27;9444;-69
2021/09/26 03:24:44;;;;;;;;;53.25;46.00;20.30;47.10;;;;;;5136442;27;8751;-67
2021/09/26 03:27:12;;;;;;;;;52.75;44.00;20.30;47.30;;;;;;5136442;27;8787;-71
2021/09/26 03:29:41;;;;;;;;;51.50;43.25;20.20;47.50;;;;;;5136382;27;8763;-69
2021/09/26 03:32:08;;;;;;;;;61.00;51.25;20.20;48.00;;;;;;5136254;27;8743;-72
2021/09/26 03:34:34;;;;;;;;;54.25;45.75;20.20;47.90;;;;;;5135891;27;8843;-68
2021/09/26 03:37:00;;;;;;;;;51.25;44.25;20.20;47.90;;;;;;5136505;27;8776;-65
2021/09/26 03:39:26;;;;;;;;;56.00;47.00;20.30;48.70;;;;;;5136414;27;8763;-69
2021/09/26 03:41:52;;;;;;;;;60.50;50.25;20.20;47.60;;;;;;5136159;27;8739;-69
2021/09/26 03:44:17;;;;;;;;;60.25;51.25;20.20;47.60;;;;;;5136314;27;9416;-69
2021/09/26 03:46:43;;;;;;;;;55.75;46.75;20.20;47.70;;;;;;5134725;27;8803;-69
2021/09/26 03:49:09;;;;;;;;;54.50;46.25;20.10;48.10;;;;;;5136221;27;9421;-69
2021/09/26 03:51:35;;;;;;;;;59.75;50.00;20.10;48.10;;;;;;5135978;27;8771;-69
2021/09/26 03:54:01;;;;;;;;;51.00;43.75;20.20;47.50;;;;;;5136099;27;8803;-70
2021/09/26 03:56:26;;;;;;;;;57.75;49.00;20.30;47.10;;;;;;5135877;27;8747;-69
2021/09/26 03:58:52;;;;;;;;;49.25;42.25;20.30;47.10;;;;;;5136062;27;8772;-71
2021/09/26 04:01:18;;;;;;;;;52.50;44.50;20.30;46.80;;;;;;5135797;27;8764;-69
2021/09/26 04:03:44;;;;;;;;;54.00;46.75;20.20;46.90;;;;;;5135630;27;8819;-68
2021/09/26 04:06:11;;;;;;;;;52.75;44.50;20.20;47.00;;;;;;5117626;27;8759;-68
2021/09/26 04:08:39;;;;;;;;;50.75;43.00;20.10;45.40;;;;;;5135653;27;8786;-69
2021/09/26 04:11:09;;;;;;;;;54.75;46.75;20.00;45.20;;;;;;5135636;27;8806;-70
2021/09/26 04:13:35;;;;;;;;;59.00;50.00;20.00;45.20;;;;;;5135567;27;8816;-70
2021/09/26 04:16:02;;;;;;;;;58.25;49.50;19.90;45.00;;;;;;5133817;27;9401;-70
2021/09/26 04:18:28;;;;;;;;;54.25;45.25;19.90;45.70;;;;;;5135792;27;9598;-70
2021/09/26 04:20:54;;;;;;;;;61.00;50.00;20.00;46.20;;;;;;5135531;27;8794;-69
2021/09/26 04:23:20;;;;;;;;;63.75;52.00;19.90;46.20;;;;;;5135465;27;8744;-70
2021/09/26 04:25:46;;;;;;;;;62.50;51.50;19.70;46.60;;;;;;5133798;27;8782;-71
2021/09/26 04:28:12;;;;;;;;;60.50;51.00;19.50;47.40;;;;;;5135379;27;8899;-70
2021/09/26 04:30:38;;;;;;;;;67.00;56.00;19.60;47.60;;;;;;5135372;27;8764;-70
2021/09/26 04:33:05;;;;;;;;;64.00;53.25;19.50;47.90;;;;;;5135343;27;8942;-68
2021/09/26 04:35:32;;;;;;;;;63.00;52.00;19.50;49.30;;;;;;5135283;27;8945;-70
2021/09/26 04:37:58;;;;;;;;;66.75;55.25;19.50;48.80;;;;;;5135535;27;8771;-69
2021/09/26 04:40:24;;;;;;;;;61.00;50.25;19.60;48.60;;;;;;5113639;28;8812;-70
2021/09/26 04:42:50;;;;;;;;;63.00;51.75;19.60;48.30;;;;;;5114517;28;8808;-71
2021/09/26 04:45:17;;;;;;;;;62.00;51.00;19.70;48.10;;;;;;5114380;27;8774;-70
2021/09/26 04:47:43;;;;;;;;;62.00;51.00;19.60;48.40;;;;;;5135510;27;8821;-70
2021/09/26 04:50:10;;;;;;;;;64.25;53.25;19.70;48.20;;;;;;5116689;28;8778;-70
2021/09/26 04:52:37;;;;;;;;;65.25;53.75;19.70;48.20;;;;;;5114935;28;8774;-70
2021/09/26 04:55:05;;;;;;;;;62.00;51.00;19.70;48.50;;;;;;5114674;28;8789;-70
2021/09/26 04:57:32;;;;;;;;;64.00;52.00;19.70;48.50;;;;;;5114577;28;8754;-69
2021/09/26 04:59:57;;;;;;;;;63.50;52.75;19.60;48.30;;;;;;5114658;28;8761;-70
2021/09/26 05:02:23;;;;;;;;;62.00;51.50;19.80;48.00;;;;;;5114594;28;8788;-70
2021/09/26 05:04:49;;;;;;;;;63.50;52.25;19.70;47.90;;;;;;5114760;28;8865;-69
2021/09/26 05:07:15;;;;;;;;;62.75;52.00;19.80;47.80;;;;;;5114787;28;8777;-70
2021/09/26 05:09:40;;;;;;;;;62.75;52.50;19.70;47.80;;;;;;5114804;28;8754;-71
2021/09/26 05:12:07;;;;;;;;;57.00;47.50;19.80;47.80;;;;;;5114457;28;8780;-68
2021/09/26 05:14:33;;;;;;;;;66.75;55.50;19.90;47.70;;;;;;5114623;28;9493;-69
2021/09/26 05:16:58;;;;;;;;;66.50;55.50;19.90;48.00;;;;;;5130862;27;8740;-69
2021/09/26 05:19:24;;;;;;;;;62.75;52.00;20.00;47.70;;;;;;5134825;27;8771;-68
2021/09/26 05:21:50;;;;;;;;;63.25;52.25;19.90;47.90;;;;;;5134850;27;8764;-70
2021/09/26 05:24:16;;;;;;;;;66.00;54.00;19.90;48.10;;;;;;5135184;27;8748;-70
2021/09/26 05:26:41;;;;;;;;;65.75;54.50;19.80;48.20;;;;;;5135817;27;8763;-70
2021/09/26 05:29:07;;;;;;;;;62.25;52.00;19.80;48.10;;;;;;5138958;27;8848;-71
2021/09/26 05:31:34;;;;;;;;;65.25;53.75;19.90;48.10;;;;;;5138561;27;9440;-70
2021/09/26 05:34:00;;;;;;;;;67.00;55.50;20.00;48.20;;;;;;5137186;27;8831;-71
2021/09/26 05:36:26;;;;;;;;;66.25;54.25;20.00;48.10;;;;;;5138556;27;8780;-69
2021/09/26 05:38:53;;;;;;;;;69.75;56.75;20.00;48.10;;;;;;5138524;27;8763;-70
2021/09/26 05:41:19;;;;;;;;;71.75;59.00;20.00;48.20;;;;;;5138490;27;8862;-69
2021/09/26 05:43:44;;;;;;;;;67.00;55.25;20.00;48.30;;;;;;5138407;27;8768;-69
2021/09/26 05:46:10;;;;;;;;;62.50;52.00;20.00;48.30;;;;;;5137188;27;8764;-70
2021/09/26 05:48:36;;;;;;;;;62.00;52.00;20.00;48.50;;;;;;5138559;27;9483;-68
2021/09/26 05:51:02;;;;;;;;;67.75;56.25;20.10;48.50;;;;;;5138380;27;8752;-70
2021/09/26 05:53:28;;;;;;;;;64.75;52.00;20.20;48.20;;;;;;5138101;27;8759;-68
2021/09/26 05:55:54;;;;;;;;;61.00;51.00;20.30;48.00;;;;;;5138512;27;8771;-70
2021/09/26 05:58:21;;;;;;;;;64.50;53.25;20.30;48.00;;;;;;5138115;27;8767;-70
2021/09/26 06:00:47;;;;;;;;;67.25;55.25;20.30;48.10;;;;;;5138113;27;8767;-68
2021/09/26 06:03:16;;;;;;;;;67.50;55.75;20.50;47.80;;;;;;5138221;27;8903;-69
2021/09/26 06:05:42;;;;;;;;;68.00;56.50;20.50;47.60;;;;;;5137965;27;8764;-70
2021/09/26 06:08:10;;;;;;;;;68.50;56.00;20.60;47.70;;;;;;5138226;27;8753;-69
2021/09/26 06:10:36;;;;;;;;;72.25;59.75;20.60;47.40;;;;;;5138056;27;8835;-70
2021/09/26 06:13:02;;;;;;;;;68.50;56.50;20.70;47.20;;;;;;5138139;27;8763;-70
2021/09/26 06:15:30;;;;;;;;;66.50;54.75;20.70;47.20;;;;;;5136467;27;8803;-70
2021/09/26 06:17:59;;;;;;;;;67.50;55.75;20.90;47.20;;;;;;5137754;27;8870;-70
2021/09/26 06:20:25;;;;;;;;;69.00;56.75;20.90;47.00;;;;;;5137702;27;8885;-69
2021/09/26 06:22:51;;;;;;;;;67.00;56.75;21.00;47.20;;;;;;5137948;27;8778;-71
2021/09/26 06:25:17;;;;;;;;;66.00;54.00;21.00;46.90;;;;;;5137835;27;9416;-70
2021/09/26 06:27:43;;;;;;;;;64.75;53.25;21.20;46.70;;;;;;5137614;27;8763;-71
2021/09/26 06:30:09;;;;;;;;;61.75;50.75;21.30;46.60;;;;;;5137665;27;8751;-71
2021/09/26 06:32:35;;;;;;;;;66.00;54.00;21.30;46.50;;;;;;5137419;27;8786;-68
2021/09/26 06:35:03;;;;;;;;;53.00;43.25;21.30;46.30;;;;;;5137597;27;8815;-70
2021/09/26 06:37:29;;;;;;;;;66.00;55.00;21.40;46.30;;;;;;5137765;27;8870;-70
2021/09/26 06:39:56;;;;;;;;;63.75;52.50;21.50;46.30;;;;;;5124043;27;8798;-69
2021/09/26 06:42:22;;;;;;;;;65.75;54.25;21.50;46.30;;;;;;5098337;28;8752;-69
2021/09/26 06:44:48;;;;;;;;;64.25;53.25;21.60;46.20;;;;;;5106256;27;8766;-68
2021/09/26 06:47:15;;;;;;;;;64.75;54.00;21.60;46.00;;;;;;5116890;28;9417;-66
2021/09/26 06:49:41;;;;;;;;;66.75;55.00;21.70;45.90;;;;;;5116607;28;8839;-60
2021/09/26 06:52:07;;;;;;;;;67.00;55.00;21.80;45.90;;;;;;5116711;28;8761;-66
2021/09/26 06:54:33;;;;;;;;;61.75;51.00;21.90;45.80;;;;;;5116492;28;8823;-66
2021/09/26 06:57:00;;;;;;;;;67.25;55.75;21.90;45.60;;;;;;5097812;28;8762;-64
2021/09/26 06:59:26;;;;;;;;;59.00;50.00;22.00;45.60;;;;;;5116541;28;8846;-65
2021/09/26 07:01:51;;;;;;;;;59.00;49.25;22.00;45.50;;;;;;5116546;28;9422;-70
2021/09/26 07:04:17;;;;;;;;;59.75;49.50;22.10;45.50;;;;;;5115494;28;9534;-67
2021/09/26 07:06:43;;;;;;;;;59.25;49.25;22.20;45.50;;;;;;5115800;28;8789;-67
2021/09/26 07:09:09;;;;;;;;;57.50;49.00;22.30;45.50;;;;;;5115823;28;8797;-68
2021/09/26 07:11:35;;;;;;;;;62.00;51.25;22.30;45.60;;;;;;5115772;28;8771;-67
2021/09/26 07:14:01;;;;;;;;;54.25;46.25;22.40;45.30;;;;;;5116040;27;8895;-65
2021/09/26 07:16:27;;;;;;;;;60.50;49.00;22.40;45.60;;;;;;5136742;27;8759;-66
2021/09/26 07:18:53;;;;;;;;;56.00;47.25;22.50;45.80;;;;;;5136943;27;8794;-67
2021/09/26 07:21:19;;;;;;;;;52.50;44.50;22.60;45.80;;;;;;5136581;27;8763;-66
2021/09/26 07:23:45;;;;;;;;;51.50;44.25;22.60;45.60;;;;;;5136595;27;8760;-66
2021/09/26 07:26:11;;;;;;;;;57.50;48.50;22.70;45.50;;;;;;5136612;27;8751;-70
2021/09/26 07:28:37;;;;;;;;;55.50;47.25;22.70;45.50;;;;;;5136043;27;8766;-64
2021/09/26 07:31:03;;;;;;;;;56.25;46.75;22.80;45.20;;;;;;5136606;27;8763;-64
2021/09/26 07:33:29;;;;;;;;;55.50;47.25;22.90;45.10;;;;;;5127446;27;8816;-64
2021/09/26 07:35:55;;;;;;;;;54.25;45.00;23.00;45.10;;;;;;5136146;27;8894;-64
2021/09/26 07:38:21;;;;;;;;;51.75;44.75;23.00;44.90;;;;;;5136166;27;8763;-69
2021/09/26 07:40:47;;;;;;;;;52.00;43.75;23.10;44.70;;;;;;5136202;27;8763;-68
2021/09/26 07:43:13;;;;;;;;;52.50;45.50;23.20;44.40;;;;;;5135699;27;8874;-72
2021/09/26 07:45:39;;;;;;;;;53.00;45.50;23.30;44.60;;;;;;5134926;27;9421;-68
2021/09/26 07:48:05;;;;;;;;;52.00;45.00;23.30;44.50;;;;;;5132403;27;8869;-72
2021/09/26 07:50:31;;;;;;;;;51.25;44.00;23.40;44.30;;;;;;5135725;27;8756;-74
2021/09/26 07:52:58;;;;;;;;;49.50;43.25;23.50;44.10;;;;;;5124652;27;8790;-65
2021/09/26 07:55:24;;;;;;;;;53.00;45.75;23.50;43.80;;;;;;5114170;28;8825;-68
2021/09/26 07:57:51;;;;;;;;;53.75;46.25;23.50;44.00;;;;;;5115108;28;8829;-66
2021/09/26 08:00:18;;;;;;;;;51.50;44.50;23.60;43.70;;;;;;5114096;28;8784;-69
2021/09/26 08:02:44;;;;;;;;;47.50;41.25;23.60;44.00;;;;;;5110039;28;8824;-70
2021/09/26 08:05:11;;;;;;;;;52.25;45.00;23.70;44.10;;;;;;5115383;28;9439;-70
2021/09/26 08:07:37;;;;;;;;;51.50;43.50;23.80;43.90;;;;;;5114950;28;9466;-68
2021/09/26 08:10:04;;;;;;;;;49.00;42.00;23.80;44.00;;;;;;5115506;28;9403;-68
2021/09/26 08:12:30;;;;;;;;;51.50;43.50;23.90;43.70;;;;;;5114699;28;8850;-67
2021/09/26 08:14:56;;;;;;;;;47.33;41.00;24.00;43.60;;;;;;5117985;27;8817;-68
2021/09/26 08:17:23;;;;;;;;;48.67;42.00;24.00;43.30;;;;;;5115079;28;8750;-69
2021/09/26 08:19:48;;;;;;;;;46.33;40.00;24.10;43.40;;;;;;5115297;28;8785;-69
2021/09/26 08:22:15;;;;;;;;;43.67;38.67;24.20;43.10;;;;;;5114933;28;9430;-64
2021/09/26 08:24:41;;;;;;;;;51.33;43.67;24.30;42.90;;;;;;5114688;28;8872;-64
2021/09/26 08:27:07;;;;;;;;;47.00;40.67;24.40;43.00;;;;;;5113924;28;8888;-64
2021/09/26 08:29:33;;;;;;;;;47.67;40.67;24.50;42.70;;;;;;5114033;28;8782;-63
2021/09/26 08:31:59;;;;;;;;;34.67;33.67;24.50;42.50;;;;;;5113420;28;8789;-65
2021/09/26 08:34:25;;;;;;;;;46.67;40.67;24.70;42.50;;;;;;5114765;28;8942;-69
2021/09/26 08:36:52;;;;;;;;;41.00;36.00;24.70;42.40;;;;;;5114787;28;8774;-68
2021/09/26 08:39:18;;;;;;;;;44.67;39.33;24.80;42.10;;;;;;5114894;27;8769;-68
2021/09/26 08:41:49;;;;;;;;;43.67;38.67;24.90;41.80;;;;;;5116647;28;8797;-66
2021/09/26 08:44:15;;;;;;;;;38.67;35.67;25.00;41.50;;;;;;5119265;27;8760;-68
2021/09/26 08:46:41;;;;;;;;;40.33;36.33;25.00;41.20;;;;;;5135461;27;8820;-65
2021/09/26 08:49:09;;;;;;;;;38.33;34.33;25.10;41.00;;;;;;5121100;28;8769;-63
2021/09/26 08:51:35;;;;;;;;;42.67;38.00;25.20;41.00;;;;;;5113668;28;8801;-62
2021/09/26 08:54:01;;;;;;;;;41.67;37.33;25.30;41.10;;;;;;5105232;28;8834;-63
2021/09/26 08:56:27;;;;;;;;;38.67;35.00;25.40;41.00;;;;;;5114322;28;8866;-61
2021/09/26 08:58:53;;;;;;;;;42.67;39.33;25.40;40.60;;;;;;5114192;28;8782;-61
2021/09/26 09:01:19;;;;;;;;;41.33;37.00;25.60;40.20;;;;;;5113803;28;8810;-62
2021/09/26 09:03:47;;;;;;;;;35.00;33.33;25.60;40.00;;;;;;5116513;28;8789;-63
2021/09/26 09:06:15;;;;;;;;;36.33;34.33;25.70;39.60;;;;;;5114984;28;8778;-63
2021/09/26 09:08:41;;;;;;;;;34.33;33.00;25.80;39.40;;;;;;5116702;28;8746;-64
2021/09/26 09:11:09;;;;;;;;;37.33;34.33;25.90;39.20;;;;;;5115305;27;8754;-62
2021/09/26 09:13:41;;;;;;;;;35.33;33.33;26.00;38.90;;;;;;5116516;28;9411;-64
2021/09/26 09:16:16;;;;;;;;;34.67;32.33;26.10;38.40;;;;;;5116610;28;8774;-64
2021/09/26 09:18:51;;;;;;;;;36.33;35.00;26.10;37.90;;;;;;5112869;28;8769;-62
2021/09/26 09:21:46;;;;;;;;;30.67;29.67;26.20;37.80;;;;;;5116326;28;8770;-63
2021/09/26 09:24:12;;;;;;;;;35.00;33.67;26.30;37.50;;;;;;4993676;28;8759;-62
2021/09/26 09:26:40;;;;;;;;;12.67;12.67;26.50;37.60;;;;;;4991354;28;8794;-62
2021/09/26 09:29:07;;;;;;;;;29.67;29.67;26.60;37.30;;;;;;4995905;28;8791;-65
2021/09/26 09:31:33;;;;;;;;;33.33;32.33;26.60;37.10;;;;;;4994610;28;8779;-64
2021/09/26 09:34:04;;;;;;;;;35.33;33.67;26.80;36.90;;;;;;4995592;28;8838;-65
2021/09/26 09:36:31;;;;;;;;;34.00;33.33;26.90;37.00;;;;;;4979717;28;8779;-64
2021/09/26 09:39:09;;;;;;;;;35.67;35.00;27.00;37.00;;;;;;4995161;28;8795;-64
2021/09/26 09:41:40;;;;;;;;;36.00;34.33;27.10;36.70;;;;;;4991456;28;8924;-63
2021/09/26 09:44:08;;;;;;;;;34.67;33.33;27.20;36.60;;;;;;4994590;28;8791;-64
2021/09/26 09:46:42;;;;;;;;;30.00;30.00;27.30;36.50;;;;;;4995055;28;8798;-63
2021/09/26 09:49:25;;;;;;;;;30.00;30.00;27.40;36.20;;;;;;4994626;28;8771;-61
2021/09/26 09:52:00;;;;;;;;;33.67;32.00;27.50;34.70;;;;;;4994080;28;8786;-62
2021/09/26 09:54:39;;;;;;;;;33.33;32.33;27.60;34.80;;;;;;4983803;28;8940;-62
2021/09/26 09:57:12;;;;;;;;;35.33;33.00;27.70;35.10;;;;;;4995201;28;8779;-63
2021/09/26 09:59:38;;;;;;;;;34.67;32.67;27.80;35.90;;;;;;5007152;28;8806;-64
2021/09/26 10:02:04;;;;;;;;;37.33;34.33;27.90;35.10;;;;;;5117561;28;8839;-64
2021/09/26 10:04:37;;;;;;;;;31.33;30.67;28.10;35.00;;;;;;5117467;28;8797;-64
2021/09/26 10:07:24;;;;;;;;;35.67;33.00;28.20;33.90;;;;;;5116625;28;9514;-64
2021/09/26 10:09:51;;;;;;;;;35.33;33.33;28.50;34.10;;;;;;5128364;27;8779;-63
2021/09/26 10:12:30;;;;;;;;;31.67;30.67;28.70;33.50;;;;;;5137289;27;8786;-64
2021/09/26 10:15:03;;;;;;;;;31.00;31.00;28.90;33.70;;;;;;5124334;27;8797;-65
2021/09/26 10:17:30;;;;;;;;;32.67;31.33;29.20;32.90;;;;;;5117407;28;9515;-64
2021/09/26 10:19:56;;;;;;;;;31.00;30.00;29.50;32.80;;;;;;5116839;28;8904;-62
2021/09/26 10:22:24;;;;;;;;;32.33;31.33;29.70;31.80;;;;;;5117482;28;9531;-62
2021/09/26 10:24:55;;;;;;;;;28.00;28.00;29.90;31.50;;;;;;5117000;28;9430;-63
2021/09/26 10:27:22;;;;;;;;;36.00;33.00;30.10;31.10;;;;;;5116527;28;9468;-63
2021/09/26 10:30:06;;;;;;;;;37.00;34.00;30.40;31.10;;;;;;5116938;28;8777;-62
2021/09/26 10:32:32;;;;;;;;;35.67;33.33;30.60;30.80;;;;;;5116984;28;8812;-63
2021/09/26 10:34:59;;;;;;;;;35.33;33.00;30.80;30.40;;;;;;5116462;28;8796;-62
2021/09/26 10:37:26;;;;;;;;;36.33;33.33;31.10;30.70;;;;;;5117039;28;9456;-62
2021/09/26 10:39:53;;;;;;;;;31.33;30.33;31.30;29.60;;;;;;5116934;28;8742;-63
2021/09/26 10:42:22;;;;;;;;;30.00;30.00;31.60;29.80;;;;;;5116270;28;8774;-61
2021/09/26 10:45:00;;;;;;;;;33.33;32.00;31.80;29.40;;;;;;5117645;27;8758;-62
2021/09/26 10:47:27;;;;;;;;;30.33;30.00;32.10;29.00;;;;;;5116042;28;8785;-62
2021/09/26 10:50:16;;;;;;;;;36.00;33.00;32.40;28.20;;;;;;5098427;28;8777;-61
2021/09/26 10:52:50;;;;;;;;;36.00;33.00;32.60;28.00;;;;;;5116145;27;9435;-60
2021/09/26 10:55:16;;;;;;;;;32.67;30.67;32.80;27.70;;;;;;5113724;28;8861;-64
2021/09/26 10:57:48;;;;;;;;;33.33;32.00;33.00;27.30;;;;;;5116447;28;8815;-61
2021/09/26 11:00:28;;;;;;;;;34.33;32.00;33.10;27.00;;;;;;5116382;28;8770;-63
2021/09/26 11:02:55;;;;;;;;;34.67;32.67;33.40;27.00;;;;;;5116264;28;8822;-62
2021/09/26 11:05:40;;;;;;;;;33.00;31.33;33.70;26.70;;;;;;5116333;28;8781;-63
2021/09/26 11:08:28;;;;;;;;;32.00;31.00;34.00;26.50;;;;;;5116025;28;8765;-63
2021/09/26 11:10:56;;;;;;;;;27.33;27.33;34.20;26.70;;;;;;5056942;28;8801;-64
2021/09/26 11:13:34;;;;;;;;;32.67;30.33;34.50;25.90;;;;;;5110194;27;8778;-62
2021/09/26 11:16:05;;;;;;;;;36.33;33.67;34.70;25.70;;;;;;5118034;27;9496;-64
2021/09/26 11:18:48;;;;;;;;;32.67;31.33;35.00;25.10;;;;;;5115374;28;9631;-63
2021/09/26 11:21:36;;;;;;;;;31.00;30.00;35.20;24.80;;;;;;5095601;28;8759;-62
2021/09/26 11:24:09;;;;;;;;;32.67;31.00;35.40;24.60;;;;;;5113499;28;8785;-63
2021/09/26 11:26:57;;;;;;;;;34.33;31.67;35.60;24.40;;;;;;5115696;28;8812;-63
2021/09/26 11:29:24;;;;;;;;;34.33;31.67;35.80;23.90;;;;;;5115841;28;8782;-64
2021/09/26 11:31:51;;;;;;;;;37.33;34.67;36.40;24.10;;;;;;5116014;28;8758;-63
2021/09/26 11:34:38;;;;;;;;;35.67;32.67;38.00;22.50;;;;;;5115568;28;8845;-64
2021/09/26 11:37:05;;;;;;;;;31.67;29.67;41.10;22.00;;;;;;5115095;28;8788;-63
2021/09/26 11:39:31;;;;;;;;;34.00;31.33;43.10;19.20;;;;;;5129134;27;8783;-59
2021/09/26 11:41:58;;;;;;;;;34.67;32.67;44.80;18.30;;;;;;5136426;27;8759;-62
2021/09/26 11:44:24;;;;;;;;;34.67;32.00;46.80;17.10;;;;;;5134364;27;8848;-61
2021/09/26 11:46:52;;;;;;;;;33.67;31.67;48.10;16.60;;;;;;5136010;27;8778;-59
2021/09/26 11:49:19;;;;;;;;;33.67;31.33;49.10;15.60;;;;;;5121062;27;8775;-63
2021/09/26 11:51:48;;;;;;;;;34.33;31.67;49.60;15.20;;;;;;5114303;28;8779;-62
2021/09/26 11:54:14;;;;;;;;;34.67;32.00;49.90;14.40;;;;;;5105777;28;8847;-60
2021/09/26 11:56:41;;;;;;;;;30.33;29.00;50.00;14.60;;;;;;5114990;28;8782;-61
2021/09/26 11:59:15;;;;;;;;;30.33;29.33;50.00;14.70;;;;;;5115347;28;8754;-61
2021/09/26 12:01:43;;;;;;;;;33.33;31.00;50.00;14.50;;;;;;5115464;28;9451;-63
2021/09/26 12:04:14;;;;;;;;;34.67;31.67;50.10;14.30;;;;;;5115055;28;8898;-62
2021/09/26 12:06:46;;;;;;;;;28.67;28.00;49.70;14.00;;;;;;5115206;28;8777;-63
2021/09/26 12:09:38;;;;;;;;;30.67;29.67;49.60;13.90;;;;;;5125983;27;8751;-64
2021/09/26 12:12:13;;;;;;;;;31.33;30.00;49.40;13.20;;;;;;5121591;27;8799;-67
2021/09/26 12:14:45;;;;;;;;;28.00;28.00;49.80;14.30;;;;;;5130965;27;8826;-64
2021/09/26 12:17:13;;;;;;;;;31.33;30.00;49.80;13.00;;;;;;5135655;27;8748;-64
2021/09/26 12:19:40;;;;;;;;;34.33;31.33;50.00;12.90;;;;;;5135538;27;8739;-65
2021/09/26 12:22:10;;;;;;;;;36.67;33.67;49.70;12.90;;;;;;5098199;28;8766;-65
2021/09/26 12:24:38;;;;;;;;;36.33;32.67;49.10;13.30;;;;;;5112216;28;8777;-65
2021/09/26 12:27:22;;;;;;;;;37.00;33.00;48.20;14.00;;;;;;5114872;28;8765;-61
2021/09/26 12:29:51;;;;;;;;;38.00;33.67;47.90;13.10;;;;;;5114747;28;8762;-64
2021/09/26 12:32:17;;;;;;;;;28.00;28.00;47.40;13.80;;;;;;5114798;28;8773;-68
2021/09/26 12:34:47;;;;;;;;;35.33;32.00;47.10;13.50;;;;;;5114523;28;8888;-65
2021/09/26 12:37:23;;;;;;;;;36.67;32.67;46.70;13.80;;;;;;5114747;28;8775;-66
2021/09/26 12:39:54;;;;;;;;;27.33;27.00;45.90;14.20;;;;;;5132598;27;8779;-67
2021/09/26 12:42:23;;;;;;;;;29.00;28.00;45.90;14.40;;;;;;5135266;27;8783;-66
2021/09/26 12:44:49;;;;;;;;;23.33;23.33;46.80;14.30;;;;;;5134264;27;8779;-65